createdAt,value
2022-10-17T00:00:55.247Z,94.47
2022-10-17T00:03:21.743Z,94.86
2022-10-17T00:05:49.191Z,95.32
2022-10-17T00:08:17.717Z,93.89
2022-10-17T00:10:44.752Z,94.10
2022-10-17T00:13:12.128Z,93.29
2022-10-17T00:15:42.699Z,93.72
2022-10-17T00:18:13.266Z,93.95
2022-10-17T00:20:39.750Z,94.48
2022-10-17T00:23:06.150Z,93.43
2022-10-17T00:25:32.848Z,93.39
2022-10-17T00:27:59.263Z,94.45
2022-10-17T00:30:25.704Z,94.76
2022-10-17T00:32:53.141Z,95.71
2022-10-17T00:35:19.625Z,95.91
2022-10-17T00:37:46.130Z,94.70
2022-10-17T00:40:12.639Z,94.72
2022-10-17T00:42:39.080Z,94.66
2022-10-17T00:45:18.818Z,94.28
2022-10-17T00:47:50.903Z,95.16
2022-10-17T00:50:19.414Z,94.48
2022-10-17T00:52:46.853Z,93.96
2022-10-17T00:55:21.695Z,93.45
2022-10-17T00:57:48.554Z,92.85
2022-10-17T01:00:16.594Z,93.31
2022-10-17T01:02:43.519Z,93.37
2022-10-17T01:05:10.696Z,93.10
2022-10-17T01:07:39.503Z,93.29
2022-10-17T01:10:07.516Z,93.90
2022-10-17T01:12:43.174Z,94.46
2022-10-17T01:15:26.092Z,94.64
2022-10-17T01:18:01.514Z,95.54
2022-10-17T01:20:43.126Z,94.53
2022-10-17T01:23:48.844Z,94.76
2022-10-17T01:26:49.260Z,95.57
2022-10-17T01:29:31.684Z,95.09
2022-10-17T01:32:05.172Z,94.26
2022-10-17T01:35:07.750Z,94.12
2022-10-17T01:37:47.569Z,94.75
2022-10-17T01:40:41.752Z,94.72
2022-10-17T01:43:16.913Z,94.33
2022-10-17T01:45:50.647Z,94.89
2022-10-17T01:48:26.476Z,94.91
2022-10-17T01:51:01.466Z,95.07
2022-10-17T01:53:33.160Z,94.92
2022-10-17T01:56:02.749Z,94.45
2022-10-17T01:58:34.008Z,93.96
2022-10-17T02:01:05.611Z,94.05
2022-10-17T02:03:34.490Z,94.10
2022-10-17T02:06:01.807Z,94.64
2022-10-17T02:08:40.330Z,94.80
2022-10-17T02:11:27.624Z,94.30
2022-10-17T02:14:00.058Z,94.64
2022-10-17T02:16:35.564Z,93.83
2022-10-17T02:19:31.416Z,93.96
2022-10-17T02:22:32.406Z,94.18
2022-10-17T02:25:02.551Z,94.71
2022-10-17T02:27:34.891Z,95.76
2022-10-17T02:30:05.413Z,94.33
2022-10-17T02:33:01.892Z,93.52
2022-10-17T02:35:34.253Z,93.56
2022-10-17T02:38:02.375Z,94.20
2022-10-17T02:40:30.345Z,94.05
2022-10-17T02:42:59.346Z,94.49
2022-10-17T02:45:28.315Z,94.77
2022-10-17T02:48:05.720Z,95.26
2022-10-17T02:50:41.395Z,96.30
2022-10-17T02:53:17.070Z,96.22
2022-10-17T02:55:51.332Z,95.92
2022-10-17T02:58:25.614Z,96.01
2022-10-17T03:00:52.648Z,95.11
2022-10-17T03:03:31.329Z,94.96
2022-10-17T03:05:57.940Z,95.05
2022-10-17T03:08:24.828Z,94.95
2022-10-17T03:10:51.494Z,95.21
2022-10-17T03:13:18.894Z,94.56
2022-10-17T03:15:45.441Z,94.96
2022-10-17T03:18:12.165Z,95.07
2022-10-17T03:20:38.725Z,95.50
2022-10-17T03:23:05.246Z,94.69
2022-10-17T03:25:32.009Z,94.76
2022-10-17T03:28:00.428Z,94.66
2022-10-17T03:30:27.471Z,95.42
2022-10-17T03:32:54.074Z,95.68
2022-10-17T03:35:20.544Z,96.61
2022-10-17T03:37:46.954Z,96.36
2022-10-17T03:40:13.392Z,95.23
2022-10-17T03:42:40.435Z,95.42
2022-10-17T03:45:07.167Z,94.79
2022-10-17T03:47:33.573Z,95.30
2022-10-17T03:50:00.084Z,95.70
2022-10-17T03:52:26.511Z,95.40
2022-10-17T03:54:53.008Z,95.50
2022-10-17T03:57:19.587Z,95.53
2022-10-17T03:59:46.026Z,95.43
2022-10-17T04:02:12.505Z,95.36
2022-10-17T04:04:38.941Z,95.77
2022-10-17T04:07:05.380Z,96.58
2022-10-17T04:09:31.904Z,96.08
2022-10-17T04:11:58.287Z,96.48
2022-10-17T04:14:25.837Z,95.63
2022-10-17T04:16:53.561Z,95.76
2022-10-17T04:19:20.152Z,94.78
2022-10-17T04:21:48.261Z,95.68
2022-10-17T04:24:15.092Z,95.77
2022-10-17T04:26:41.577Z,96.08
2022-10-17T04:29:08.042Z,96.29
2022-10-17T04:31:34.545Z,96.15
2022-10-17T04:34:00.979Z,96.55
2022-10-17T04:36:31.688Z,97.13
2022-10-17T04:38:58.087Z,96.23
2022-10-17T04:41:25.829Z,95.52
2022-10-17T04:43:52.236Z,94.17
2022-10-17T04:46:18.661Z,97.36
2022-10-17T04:48:45.221Z,97.29
2022-10-17T04:51:14.344Z,97.46
2022-10-17T04:53:42.521Z,97.44
2022-10-17T04:56:13.652Z,97.17
2022-10-17T04:58:41.142Z,97.96
2022-10-17T05:01:10.312Z,97.99
2022-10-17T05:03:37.128Z,97.62
2022-10-17T05:06:18.975Z,97.34
2022-10-17T05:08:46.192Z,96.78
2022-10-17T05:11:29.268Z,96.96
2022-10-17T05:13:58.060Z,97.25
2022-10-17T05:16:25.785Z,97.58
2022-10-17T05:18:54.452Z,97.46
2022-10-17T05:21:22.169Z,97.24
2022-10-17T05:23:48.680Z,97.40
2022-10-17T05:26:15.502Z,97.45
2022-10-17T05:28:42.001Z,96.60
2022-10-17T05:31:11.006Z,96.45
2022-10-17T05:33:38.827Z,97.06
2022-10-17T05:36:06.589Z,96.91
2022-10-17T05:38:33.151Z,97.27
2022-10-17T05:41:00.802Z,97.74
2022-10-17T05:43:28.027Z,97.56
2022-10-17T05:45:56.123Z,97.58
2022-10-17T05:48:23.864Z,98.01
2022-10-17T05:50:50.286Z,97.87
2022-10-17T05:53:17.067Z,96.83
2022-10-17T05:55:43.474Z,96.13
2022-10-17T05:58:17.599Z,95.98
2022-10-17T06:00:48.738Z,95.95
2022-10-17T06:03:15.143Z,96.05
2022-10-17T06:05:41.563Z,95.96
2022-10-17T06:08:07.994Z,96.96
2022-10-17T06:10:34.400Z,97.32
2022-10-17T06:13:00.808Z,97.23
2022-10-17T06:15:27.297Z,96.94
2022-10-17T06:17:53.700Z,97.80
2022-10-17T06:20:20.158Z,97.41
2022-10-17T06:22:46.579Z,97.63
2022-10-17T06:25:13.131Z,97.93
2022-10-17T06:27:39.626Z,97.32
2022-10-17T06:30:06.655Z,98.31
2022-10-17T06:32:33.085Z,98.22
2022-10-17T06:34:59.754Z,98.89
2022-10-17T06:37:26.524Z,98.98
2022-10-17T06:39:53.610Z,99.12
2022-10-17T06:42:20.021Z,99.00
2022-10-17T06:44:46.422Z,99.48
2022-10-17T06:47:15.407Z,99.70
2022-10-17T06:49:44.401Z,100.00
2022-10-17T06:52:11.068Z,100.00
2022-10-17T06:54:37.487Z,100.00
2022-10-17T06:57:03.935Z,99.51
2022-10-17T06:59:30.330Z,99.93
2022-10-17T07:01:56.734Z,100.00
2022-10-17T07:04:23.115Z,100.00
2022-10-17T07:06:49.716Z,100.00
2022-10-17T07:09:17.036Z,100.00
2022-10-17T07:11:43.456Z,100.00
2022-10-17T07:14:09.920Z,100.00
2022-10-17T07:16:36.328Z,99.80
2022-10-17T07:19:03.092Z,99.54
2022-10-17T07:21:29.518Z,99.28
2022-10-17T07:23:55.994Z,99.34
2022-10-17T07:26:22.705Z,100.00
2022-10-17T07:28:53.394Z,100.00
2022-10-17T07:31:22.335Z,100.00
2022-10-17T07:33:49.173Z,99.54
2022-10-17T07:36:15.847Z,99.00
2022-10-17T07:38:42.289Z,98.35
2022-10-17T07:41:10.871Z,98.43
2022-10-17T07:43:37.550Z,98.38
2022-10-17T07:46:05.852Z,96.78
2022-10-17T07:48:32.573Z,96.41
2022-10-17T07:51:02.527Z,96.42
2022-10-17T07:53:29.140Z,96.02
2022-10-17T07:55:55.532Z,94.80
2022-10-17T07:58:21.972Z,95.47
2022-10-17T08:00:49.056Z,95.21
2022-10-17T08:03:15.606Z,95.53
2022-10-17T08:05:42.103Z,94.97
2022-10-17T08:08:08.921Z,94.41
2022-10-17T08:10:35.438Z,93.84
2022-10-17T08:13:01.857Z,92.61
2022-10-17T08:15:31.707Z,91.65
2022-10-17T08:17:59.344Z,91.40
2022-10-17T08:20:25.779Z,90.73
2022-10-17T08:22:53.496Z,89.65
2022-10-17T08:25:20.706Z,88.93
2022-10-17T08:27:47.264Z,89.43
2022-10-17T08:30:13.781Z,89.94
2022-10-17T08:32:40.534Z,88.72
2022-10-17T08:35:07.226Z,88.39
2022-10-17T08:37:38.608Z,87.07
2022-10-17T08:40:05.573Z,87.01
2022-10-17T08:42:59.958Z,86.02
2022-10-17T08:45:36.466Z,86.84
2022-10-17T08:48:05.894Z,85.86
2022-10-17T08:50:38.264Z,86.54
2022-10-17T08:53:28.019Z,86.71
2022-10-17T08:55:55.082Z,85.33
2022-10-17T08:58:26.246Z,84.58
2022-10-17T09:01:26.115Z,83.39
2022-10-17T09:04:26.689Z,81.53
2022-10-17T09:07:19.193Z,81.92
2022-10-17T09:10:03.645Z,80.24
2022-10-17T09:12:58.001Z,79.51
2022-10-17T09:15:50.563Z,77.71
2022-10-17T09:18:27.762Z,76.51
2022-10-17T09:21:00.306Z,74.52
2022-10-17T09:23:45.210Z,73.75
2022-10-17T09:26:12.436Z,73.05
2022-10-17T09:28:41.457Z,73.30
2022-10-17T09:31:19.959Z,73.12
2022-10-17T09:33:55.632Z,73.87
2022-10-17T09:36:29.496Z,74.39
2022-10-17T09:39:02.161Z,74.25
2022-10-17T09:41:51.565Z,73.36
2022-10-17T09:44:17.945Z,72.71
2022-10-17T09:46:58.962Z,73.85
2022-10-17T09:49:43.634Z,69.01
2022-10-17T09:52:18.066Z,68.87
2022-10-17T09:54:49.484Z,65.54
2022-10-17T09:57:18.338Z,65.48
2022-10-17T09:59:56.551Z,63.69
2022-10-17T10:02:24.691Z,63.99
2022-10-17T10:05:16.475Z,63.36
2022-10-17T10:08:00.283Z,64.29
2022-10-17T10:10:28.824Z,63.41
2022-10-17T10:13:06.506Z,63.93
2022-10-17T10:15:38.991Z,64.29
2022-10-17T10:18:25.403Z,63.11
2022-10-17T10:21:12.444Z,62.85
2022-10-17T10:23:43.047Z,60.70
2022-10-17T10:26:25.776Z,61.13
2022-10-17T10:29:19.948Z,58.97
2022-10-17T10:31:47.240Z,59.59
2022-10-17T10:34:30.078Z,58.91
2022-10-17T10:37:01.851Z,58.97
2022-10-17T10:39:43.080Z,55.09
2022-10-17T10:42:21.971Z,55.10
2022-10-17T10:44:49.683Z,53.28
2022-10-17T10:47:20.916Z,51.81
2022-10-17T10:49:50.147Z,51.64
2022-10-17T10:52:27.709Z,52.22
2022-10-17T10:55:03.538Z,49.94
2022-10-17T10:57:33.343Z,49.64
2022-10-17T11:00:19.415Z,49.74
2022-10-17T11:02:55.176Z,50.01
2022-10-17T11:05:48.002Z,48.69
2022-10-17T11:08:20.499Z,47.42
2022-10-17T11:11:13.743Z,49.03
2022-10-17T11:13:49.642Z,49.76
2022-10-17T11:16:35.711Z,48.39
2022-10-17T11:19:05.198Z,51.69
2022-10-17T11:21:47.241Z,51.13
2022-10-17T11:24:38.733Z,49.02
2022-10-17T11:27:07.123Z,49.54
2022-10-17T11:29:41.255Z,47.32
2022-10-17T11:32:16.607Z,48.55
2022-10-17T11:34:47.680Z,49.97
2022-10-17T11:37:28.703Z,50.84
2022-10-17T11:40:00.866Z,50.86
2022-10-17T11:42:40.700Z,50.57
2022-10-17T11:45:16.931Z,50.22
2022-10-17T11:47:43.238Z,52.94
2022-10-17T11:53:30.068Z,50.90
2022-10-17T11:55:59.076Z,52.21
2022-10-17T11:58:45.697Z,51.70
2022-10-17T12:01:59.843Z,49.79
2022-10-17T12:04:52.687Z,50.87
2022-10-17T12:07:48.210Z,49.73
2022-10-17T12:10:51.599Z,50.94
2022-10-17T12:13:33.226Z,50.38
2022-10-17T12:16:24.737Z,49.40
2022-10-17T12:19:06.299Z,51.06
2022-10-17T12:21:55.797Z,49.29
2022-10-17T12:24:34.948Z,49.71
2022-10-17T12:27:39.997Z,49.63
2022-10-17T12:30:16.806Z,48.58
2022-10-17T12:33:13.387Z,50.92
2022-10-17T12:35:40.824Z,51.01
2022-10-17T12:38:37.291Z,49.87
2022-10-17T12:41:05.391Z,51.44
2022-10-17T12:43:38.311Z,49.84
2022-10-17T12:46:08.447Z,51.29
2022-10-17T12:48:34.812Z,48.98
2022-10-17T12:54:14.814Z,47.78
2022-10-17T12:56:49.567Z,48.11
2022-10-17T12:59:20.702Z,47.25
2022-10-17T13:01:58.778Z,45.17
2022-10-17T13:04:36.766Z,46.50
2022-10-17T13:07:04.092Z,46.19
2022-10-17T13:09:37.564Z,45.53
2022-10-17T13:12:10.930Z,45.40
2022-10-17T13:14:40.338Z,45.52
2022-10-17T13:17:25.081Z,45.52
2022-10-17T13:19:52.735Z,45.56
2022-10-17T13:22:28.674Z,46.12
2022-10-17T13:25:08.531Z,44.83
2022-10-17T13:27:36.531Z,46.16
2022-10-17T13:30:21.096Z,45.09
2022-10-17T13:32:53.951Z,46.66
2022-10-17T13:36:01.873Z,46.50
2022-10-17T13:38:35.685Z,46.52
2022-10-17T13:41:34.304Z,46.61
2022-10-17T13:43:58.565Z,48.97
2022-10-17T13:46:37.903Z,48.61
2022-10-17T13:49:27.972Z,48.07
2022-10-17T13:51:56.297Z,47.48
2022-10-17T13:54:45.950Z,47.72
2022-10-17T13:57:28.473Z,45.55
2022-10-17T14:00:23.070Z,47.13
2022-10-17T14:02:49.583Z,47.06
2022-10-17T14:05:20.336Z,47.13
2022-10-17T14:08:21.700Z,46.90
2022-10-17T14:10:47.408Z,47.35
2022-10-17T14:13:31.167Z,47.29
2022-10-17T14:16:01.412Z,48.55
2022-10-17T14:18:35.891Z,48.60
2022-10-17T14:23:51.560Z,48.70
2022-10-17T14:26:22.846Z,48.65
2022-10-17T14:29:03.478Z,49.71
2022-10-17T14:31:33.087Z,50.14
2022-10-17T14:34:01.295Z,49.96
2022-10-17T14:36:40.107Z,50.76
2022-10-17T14:39:20.847Z,50.24
2022-10-17T14:41:50.471Z,50.17
2022-10-17T14:44:30.356Z,50.50
2022-10-17T14:47:38.091Z,50.65
2022-10-17T14:50:16.924Z,51.03
2022-10-17T14:53:02.929Z,51.41
2022-10-17T14:55:31.223Z,51.83
2022-10-17T14:57:58.506Z,51.48
2022-10-17T15:00:25.835Z,51.84
2022-10-17T15:02:54.261Z,51.88
2022-10-17T15:05:23.049Z,51.55
2022-10-17T15:07:49.456Z,51.79
2022-10-17T15:10:35.806Z,51.50
2022-10-17T15:13:27.055Z,52.15
2022-10-17T15:15:52.000Z,53.84
2022-10-17T15:18:18.771Z,55.55
2022-10-17T15:20:45.215Z,57.79
2022-10-17T15:23:11.662Z,59.95
2022-10-17T15:25:39.077Z,60.49
2022-10-17T15:28:05.603Z,61.91
2022-10-17T15:30:35.612Z,62.39
2022-10-17T15:33:02.034Z,61.86
2022-10-17T19:53:22.095Z,89.84
2022-10-17T19:55:52.569Z,89.92
2022-10-17T19:58:19.755Z,88.62
2022-10-17T20:00:51.799Z,88.59
2022-10-17T20:03:19.168Z,87.25
2022-10-17T20:05:45.845Z,89.55
2022-10-17T20:08:13.866Z,90.71
2022-10-17T20:10:41.214Z,91.07
2022-10-17T20:13:14.970Z,91.08
2022-10-17T20:15:41.406Z,91.49
2022-10-17T20:18:20.399Z,90.86
2022-10-17T20:20:46.787Z,90.22
2022-10-17T20:23:13.212Z,90.71
2022-10-17T20:25:39.733Z,90.39
2022-10-17T20:28:06.456Z,90.08
2022-10-17T20:30:34.121Z,90.50
2022-10-17T20:33:00.502Z,90.61
2022-10-17T20:35:26.925Z,90.67
2022-10-17T20:37:53.331Z,90.52
2022-10-17T20:40:35.955Z,90.61
2022-10-17T20:43:04.133Z,90.63
2022-10-17T20:45:44.226Z,91.17
2022-10-17T20:48:17.353Z,90.10
2022-10-17T20:50:44.329Z,90.86
2022-10-17T20:53:35.442Z,90.82
2022-10-17T20:56:07.455Z,92.79
2022-10-17T20:58:33.991Z,92.76
2022-10-17T21:01:06.507Z,92.17
2022-10-17T21:03:37.107Z,91.45
2022-10-17T21:06:05.424Z,91.23
2022-10-17T21:08:31.830Z,90.67
2022-10-17T21:11:08.425Z,90.01
2022-10-17T21:13:34.794Z,90.63
2022-10-17T21:16:09.611Z,90.78
2022-10-17T21:18:36.331Z,90.82
2022-10-17T21:21:18.190Z,91.26
2022-10-17T21:23:46.101Z,91.58
2022-10-17T21:26:13.449Z,91.38
2022-10-17T21:28:41.067Z,91.03
2022-10-17T21:31:13.901Z,90.60
2022-10-17T21:33:41.582Z,91.29
2022-10-17T21:36:08.884Z,92.26
2022-10-17T21:38:39.547Z,91.96
2022-10-17T21:41:07.951Z,92.23
2022-10-17T21:43:35.571Z,92.28
2022-10-17T21:46:07.346Z,92.16
2022-10-17T21:48:34.205Z,92.78
2022-10-17T21:51:05.237Z,92.17
2022-10-17T21:53:32.369Z,92.45
2022-10-17T21:56:00.726Z,92.47
2022-10-17T21:58:27.997Z,92.89
2022-10-17T22:01:02.523Z,92.57
2022-10-17T22:03:28.932Z,92.15
2022-10-17T22:06:06.836Z,92.26
2022-10-17T22:08:38.843Z,92.15
2022-10-17T22:11:13.406Z,92.25
2022-10-17T22:13:40.884Z,91.92
2022-10-17T22:16:13.430Z,92.28
2022-10-17T22:18:40.678Z,92.53
2022-10-17T22:21:10.963Z,93.69
2022-10-17T22:23:38.269Z,93.55
2022-10-17T22:26:05.923Z,93.93
2022-10-17T22:28:33.273Z,93.54
2022-10-17T22:30:59.771Z,94.59
2022-10-17T22:33:26.297Z,94.09
2022-10-17T22:35:52.735Z,94.86
2022-10-17T22:38:19.384Z,94.44
2022-10-17T22:40:46.450Z,94.08
2022-10-17T22:43:13.679Z,94.01
2022-10-17T22:45:40.377Z,93.87
2022-10-17T22:48:07.946Z,94.44
2022-10-17T22:50:34.495Z,93.41
2022-10-17T22:53:00.891Z,92.61
2022-10-17T22:55:27.537Z,92.55
2022-10-17T22:57:53.993Z,92.08
2022-10-17T23:00:20.605Z,92.90
2022-10-17T23:02:47.043Z,92.46
2022-10-17T23:05:13.612Z,92.68
2022-10-17T23:07:39.987Z,93.74
2022-10-17T23:10:06.772Z,94.73
2022-10-17T23:12:33.293Z,93.67
2022-10-17T23:14:59.902Z,93.53
2022-10-17T23:17:26.302Z,93.83
2022-10-17T23:19:57.713Z,92.93
2022-10-17T23:22:24.223Z,92.58
2022-10-17T23:24:50.648Z,94.01
2022-10-17T23:27:17.083Z,94.57
2022-10-17T23:29:43.550Z,94.78
2022-10-17T23:32:09.950Z,94.48
2022-10-17T23:34:36.366Z,96.56
2022-10-17T23:37:02.785Z,97.13
2022-10-17T23:39:29.153Z,95.38
2022-10-17T23:41:55.537Z,95.12
2022-10-17T23:44:23.427Z,95.93
2022-10-17T23:46:49.849Z,95.04
2022-10-17T23:49:16.205Z,94.27
2022-10-17T23:51:42.602Z,95.56
2022-10-17T23:54:11.052Z,96.24
2022-10-17T23:56:37.489Z,96.70
2022-10-17T23:59:03.965Z,96.79
